Aeroporto :
LOGIN :

Iscrizione | Disclaimer

   EN    FR    IT 

 










Sommario :    VFR   VFR Marginale   IFR   IFR Intensivo   IFR Molto Intensivo
Visibilità : 
Base nubi : 
>= 8 km
>= 3000ft
5 / 8 km
1000 / 3000 ft
1500m / 5 km
500 / 1000 ft
800 / 1500m
200 / 500 ft
< 800m
< 200 ft
Simboli :   Temporali  Nebbia  Neve Forte  Precipitazioni Forti  Vento > 20 kt
SIGMETs :   Varie  Temporali  Ghiacco  Turbolenza  Onda orograficha  Ceneri Vulcaniche






- Altitudine del aeroporto : 13 ft
- Codice IATA : OST


EBOS - Oostend bruges Int.

ULTIMO METAR :
  • 091020Z 32020G30KT 8000 -SHRA SCT021 BKN048 08/05 Q1002 TEMPO 32024G40KT

METARs OBSOLETI :
  • 090950Z 31022KT 9999 SCT021 BKN048 08/05 Q1001 TEMPO 30024G36KT
  • 090920Z 31023KT 9999 SCT021 BKN048 08/05 Q1000 TEMPO 30024G36KT
  • 090850Z 31019KT 9999 SCT024 BKN048 08/05 Q0999 TEMPO 30024G36KT
  • 090820Z 30018KT 9999 SCT024 BKN048 08/05 Q0998 TEMPO 30024G36KT
  • 090750Z 30019KT 9999 SCT024 BKN048 08/05 Q0997 TEMPO 30024G36KT

TAF TAF EBOS
Valido dal 09 a 06 ore il 10 a 12 ore UTC


090520Z 0906/1012 29022G37KT 9999 SCT025
TEMPO 0906/0917 3000 SHRAGS BKN012CB
TEMPO 0910/0915 32029G48KT
BECMG 0913/0915 33022G36KT
PROB30
TEMPO 0917/0922 4000 SHRA BKN014TCU
BECMG 0922/0924 32012KT
BECMG 1007/1009 18012KT



MetMap, La meteo Aeronautica in un colpo d'occhio ! - Copyright ORBIFLY Dicembre 2007 - Disclaimer

ORBIFLY MET'MAP TEAM :

Programmazione e sviluppo : Alexandra Zaïnal
Concezione : Baudouin d'Aumeries
Aiuto per la programmazione : Marc-Olivier Méhu
Supporto tecnico e logistico : Manuel Goepfert
Aiuto per la traduzione : Arnaldo La Scala

Contatto : metmap@orbifly.com




FONTI E CREDITI :

   NOAA